sensor_id;sensor_type;location;lat;lon;timestamp;temperature;humidity
71173;DHT22;58875;51.996;4.504;2023-03-01T00:00:54;2.22;79.27
71173;DHT22;58875;51.996;4.504;2023-03-01T00:03:30;2.20;79.38
71173;DHT22;58875;51.996;4.504;2023-03-01T00:05:59;2.21;79.31
71173;DHT22;58875;51.996;4.504;2023-03-01T00:08:33;2.20;79.51
71173;DHT22;58875;51.996;4.504;2023-03-01T00:11:18;2.21;79.69
71173;DHT22;58875;51.996;4.504;2023-03-01T00:13:46;2.18;79.81
71173;DHT22;58875;51.996;4.504;2023-03-01T00:16:15;2.18;80.03
71173;DHT22;58875;51.996;4.504;2023-03-01T00:18:41;2.15;79.92
71173;DHT22;58875;51.996;4.504;2023-03-01T00:21:06;2.14;79.87
71173;DHT22;58875;51.996;4.504;2023-03-01T00:23:34;2.17;79.88
71173;DHT22;58875;51.996;4.504;2023-03-01T00:25:59;2.12;80.19
71173;DHT22;58875;51.996;4.504;2023-03-01T00:28:25;2.22;80.54
71173;DHT22;58875;51.996;4.504;2023-03-01T00:30:51;2.21;80.66
71173;DHT22;58875;51.996;4.504;2023-03-01T00:33:17;2.18;80.58
71173;DHT22;58875;51.996;4.504;2023-03-01T00:35:43;2.18;80.60
71173;DHT22;58875;51.996;4.504;2023-03-01T00:38:09;2.18;80.63
71173;DHT22;58875;51.996;4.504;2023-03-01T00:40:36;2.12;80.64
71173;DHT22;58875;51.996;4.504;2023-03-01T00:43:03;2.07;80.65
71173;DHT22;58875;51.996;4.504;2023-03-01T00:45:29;2.04;80.71
71173;DHT22;58875;51.996;4.504;2023-03-01T00:47:56;2.07;80.76
71173;DHT22;58875;51.996;4.504;2023-03-01T00:50:23;2.04;80.65
71173;DHT22;58875;51.996;4.504;2023-03-01T00:52:55;2.01;80.65
71173;DHT22;58875;51.996;4.504;2023-03-01T00:55:25;2.01;80.64
71173;DHT22;58875;51.996;4.504;2023-03-01T00:57:51;1.93;80.23
71173;DHT22;58875;51.996;4.504;2023-03-01T01:00:18;1.87;80.04
71173;DHT22;58875;51.996;4.504;2023-03-01T01:02:47;1.81;79.95
71173;DHT22;58875;51.996;4.504;2023-03-01T01:05:16;1.75;79.84
71173;DHT22;58875;51.996;4.504;2023-03-01T01:07:49;1.64;79.63
71173;DHT22;58875;51.996;4.504;2023-03-01T01:10:14;1.60;79.60
71173;DHT22;58875;51.996;4.504;2023-03-01T01:12:46;1.63;79.98
71173;DHT22;58875;51.996;4.504;2023-03-01T01:15:20;1.66;80.28
71173;DHT22;58875;51.996;4.504;2023-03-01T01:17:46;1.66;80.25
71173;DHT22;58875;51.996;4.504;2023-03-01T01:20:12;1.62;80.22
71173;DHT22;58875;51.996;4.504;2023-03-01T01:22:37;1.66;80.41
71173;DHT22;58875;51.996;4.504;2023-03-01T01:25:03;1.66;80.40
71173;DHT22;58875;51.996;4.504;2023-03-01T01:27:29;1.62;80.35
71173;DHT22;58875;51.996;4.504;2023-03-01T01:29:55;1.52;80.13
71173;DHT22;58875;51.996;4.504;2023-03-01T01:32:20;1.52;80.40
71173;DHT22;58875;51.996;4.504;2023-03-01T01:34:46;1.53;80.75
71173;DHT22;58875;51.996;4.504;2023-03-01T01:37:11;1.57;80.89
71173;DHT22;58875;51.996;4.504;2023-03-01T01:39:37;1.59;80.97
71173;DHT22;58875;51.996;4.504;2023-03-01T01:42:03;1.62;80.98
71173;DHT22;58875;51.996;4.504;2023-03-01T01:44:29;1.64;81.00
71173;DHT22;58875;51.996;4.504;2023-03-01T01:47:14;1.66;80.86
71173;DHT22;58875;51.996;4.504;2023-03-01T01:49:47;1.66;81.12
71173;DHT22;58875;51.996;4.504;2023-03-01T01:57:33;1.66;81.10
71173;DHT22;58875;51.996;4.504;2023-03-01T02:00:05;1.62;81.10
71173;DHT22;58875;51.996;4.504;2023-03-01T02:02:31;1.60;81.06
71173;DHT22;58875;51.996;4.504;2023-03-01T02:05:09;1.56;80.92
71173;DHT22;58875;51.996;4.504;2023-03-01T02:07:50;1.47;80.95
71173;DHT22;58875;51.996;4.504;2023-03-01T02:10:16;1.39;80.92
71173;DHT22;58875;51.996;4.504;2023-03-01T02:12:42;1.38;81.18
71173;DHT22;58875;51.996;4.504;2023-03-01T02:15:09;1.42;81.37
71173;DHT22;58875;51.996;4.504;2023-03-01T02:17:35;1.44;81.51
71173;DHT22;58875;51.996;4.504;2023-03-01T02:20:14;1.39;81.10
71173;DHT22;58875;51.996;4.504;2023-03-01T02:22:44;1.29;80.96
71173;DHT22;58875;51.996;4.504;2023-03-01T02:30:50;1.11;80.79
71173;DHT22;58875;51.996;4.504;2023-03-01T02:33:41;1.03;80.79
71173;DHT22;58875;51.996;4.504;2023-03-01T02:36:28;0.98;80.82
71173;DHT22;58875;51.996;4.504;2023-03-01T02:39:02;0.95;80.74
71173;DHT22;58875;51.996;4.504;2023-03-01T02:41:33;0.89;80.66
71173;DHT22;58875;51.996;4.504;2023-03-01T02:43:59;0.80;80.78
71173;DHT22;58875;51.996;4.504;2023-03-01T02:46:30;0.84;80.96
71173;DHT22;58875;51.996;4.504;2023-03-01T02:48:59;0.81;81.21
71173;DHT22;58875;51.996;4.504;2023-03-01T02:54:26;0.85;81.32
71173;DHT22;58875;51.996;4.504;2023-03-01T02:56:53;0.85;81.21
71173;DHT22;58875;51.996;4.504;2023-03-01T02:59:21;0.84;81.22
71173;DHT22;58875;51.996;4.504;2023-03-01T03:01:48;0.87;81.86
71173;DHT22;58875;51.996;4.504;2023-03-01T03:04:17;0.99;82.15
71173;DHT22;58875;51.996;4.504;2023-03-01T03:06:48;1.11;82.42
71173;DHT22;58875;51.996;4.504;2023-03-01T03:09:15;1.13;82.19
71173;DHT22;58875;51.996;4.504;2023-03-01T03:11:41;1.12;82.13
71173;DHT22;58875;51.996;4.504;2023-03-01T03:14:13;1.09;81.99
71173;DHT22;58875;51.996;4.504;2023-03-01T03:16:47;1.08;81.87
71173;DHT22;58875;51.996;4.504;2023-03-01T03:19:13;1.09;82.09
71173;DHT22;58875;51.996;4.504;2023-03-01T03:21:39;1.08;82.00
71173;DHT22;58875;51.996;4.504;2023-03-01T03:24:16;1.06;82.05
71173;DHT22;58875;51.996;4.504;2023-03-01T03:26:43;1.03;81.99
71173;DHT22;58875;51.996;4.504;2023-03-01T03:29:09;0.98;81.91
71173;DHT22;58875;51.996;4.504;2023-03-01T03:31:34;0.98;81.96
71173;DHT22;58875;51.996;4.504;2023-03-01T03:34:00;0.93;81.96
71173;DHT22;58875;51.996;4.504;2023-03-01T03:36:25;0.92;82.01
71173;DHT22;58875;51.996;4.504;2023-03-01T03:38:51;0.92;82.00
71173;DHT22;58875;51.996;4.504;2023-03-01T03:41:17;0.95;81.90
71173;DHT22;58875;51.996;4.504;2023-03-01T03:43:43;0.88;81.64
71173;DHT22;58875;51.996;4.504;2023-03-01T03:46:11;0.82;81.65
71173;DHT22;58875;51.996;4.504;2023-03-01T03:48:41;0.77;81.46
71173;DHT22;58875;51.996;4.504;2023-03-01T03:51:11;0.72;81.41
71173;DHT22;58875;51.996;4.504;2023-03-01T03:53:36;0.67;81.42
71173;DHT22;58875;51.996;4.504;2023-03-01T03:56:05;0.64;81.71
71173;DHT22;58875;51.996;4.504;2023-03-01T03:58:30;0.61;81.56
71173;DHT22;58875;51.996;4.504;2023-03-01T04:00:56;0.57;81.79
71173;DHT22;58875;51.996;4.504;2023-03-01T04:03:25;0.56;81.71
71173;DHT22;58875;51.996;4.504;2023-03-01T04:05:51;0.54;81.55
71173;DHT22;58875;51.996;4.504;2023-03-01T04:08:19;0.57;81.52
71173;DHT22;58875;51.996;4.504;2023-03-01T04:10:51;0.53;81.31
71173;DHT22;58875;51.996;4.504;2023-03-01T04:13:20;0.46;81.53
71173;DHT22;58875;51.996;4.504;2023-03-01T04:15:48;0.47;81.47
71173;DHT22;58875;51.996;4.504;2023-03-01T04:18:15;0.40;81.43
71173;DHT22;58875;51.996;4.504;2023-03-01T04:20:42;0.41;81.44
71173;DHT22;58875;51.996;4.504;2023-03-01T04:23:12;0.37;81.35
71173;DHT22;58875;51.996;4.504;2023-03-01T04:25:46;0.37;81.40
71173;DHT22;58875;51.996;4.504;2023-03-01T04:28:15;0.29;81.40
71173;DHT22;58875;51.996;4.504;2023-03-01T04:30:41;0.23;81.65
71173;DHT22;58875;51.996;4.504;2023-03-01T04:33:08;0.24;81.89
71173;DHT22;58875;51.996;4.504;2023-03-01T04:35:35;0.30;82.12
71173;DHT22;58875;51.996;4.504;2023-03-01T04:38:01;0.41;82.28
71173;DHT22;58875;51.996;4.504;2023-03-01T04:40:27;0.49;82.46
71173;DHT22;58875;51.996;4.504;2023-03-01T04:42:52;0.57;82.63
71173;DHT22;58875;51.996;4.504;2023-03-01T04:45:18;0.60;82.63
71173;DHT22;58875;51.996;4.504;2023-03-01T04:47:46;0.61;82.71
71173;DHT22;58875;51.996;4.504;2023-03-01T04:50:16;0.64;82.93
71173;DHT22;58875;51.996;4.504;2023-03-01T04:52:52;0.72;82.76
71173;DHT22;58875;51.996;4.504;2023-03-01T04:55:18;0.71;82.95
71173;DHT22;58875;51.996;4.504;2023-03-01T04:57:44;0.74;82.86
71173;DHT22;58875;51.996;4.504;2023-03-01T05:00:14;0.75;82.94
71173;DHT22;58875;51.996;4.504;2023-03-01T05:02:49;0.75;83.18
71173;DHT22;58875;51.996;4.504;2023-03-01T05:05:34;0.72;83.13
71173;DHT22;58875;51.996;4.504;2023-03-01T05:08:07;0.75;83.37
71173;DHT22;58875;51.996;4.504;2023-03-01T05:10:38;0.67;83.36
71173;DHT22;58875;51.996;4.504;2023-03-01T05:13:04;0.65;83.34
71173;DHT22;58875;51.996;4.504;2023-03-01T05:15:31;0.68;83.44
71173;DHT22;58875;51.996;4.504;2023-03-01T05:17:59;0.70;83.36
71173;DHT22;58875;51.996;4.504;2023-03-01T05:20:36;0.70;83.34
71173;DHT22;58875;51.996;4.504;2023-03-01T05:23:02;0.68;83.22
71173;DHT22;58875;51.996;4.504;2023-03-01T05:25:33;0.62;83.11
71173;DHT22;58875;51.996;4.504;2023-03-01T05:28:09;0.61;83.12
71173;DHT22;58875;51.996;4.504;2023-03-01T05:30:35;0.56;83.09
71173;DHT22;58875;51.996;4.504;2023-03-01T05:33:03;0.51;83.11
71173;DHT22;58875;51.996;4.504;2023-03-01T05:35:29;0.44;83.01
71173;DHT22;58875;51.996;4.504;2023-03-01T05:37:57;0.36;82.77
71173;DHT22;58875;51.996;4.504;2023-03-01T05:40:24;0.37;83.06
71173;DHT22;58875;51.996;4.504;2023-03-01T05:42:55;0.39;83.05
71173;DHT22;58875;51.996;4.504;2023-03-01T05:45:22;0.39;83.25
71173;DHT22;58875;51.996;4.504;2023-03-01T05:47:49;0.30;83.28
71173;DHT22;58875;51.996;4.504;2023-03-01T05:50:21;0.27;83.39
71173;DHT22;58875;51.996;4.504;2023-03-01T05:52:49;0.24;83.18
71173;DHT22;58875;51.996;4.504;2023-03-01T05:55:17;0.20;82.91
71173;DHT22;58875;51.996;4.504;2023-03-01T05:57:43;0.10;82.69
71173;DHT22;58875;51.996;4.504;2023-03-01T06:00:10;0.03;82.69
71173;DHT22;58875;51.996;4.504;2023-03-01T06:02:35;0.00;82.66
71173;DHT22;58875;51.996;4.504;2023-03-01T06:05:01;-0.02;82.44
71173;DHT22;58875;51.996;4.504;2023-03-01T06:07:27;-0.10;82.48
71173;DHT22;58875;51.996;4.504;2023-03-01T06:09:53;-0.12;82.67
71173;DHT22;58875;51.996;4.504;2023-03-01T06:12:18;-0.07;82.70
71173;DHT22;58875;51.996;4.504;2023-03-01T06:14:46;-0.11;82.51
71173;DHT22;58875;51.996;4.504;2023-03-01T06:17:13;-0.14;82.40
71173;DHT22;58875;51.996;4.504;2023-03-01T06:19:38;-0.11;82.48
71173;DHT22;58875;51.996;4.504;2023-03-01T06:22:07;-0.12;82.36
71173;DHT22;58875;51.996;4.504;2023-03-01T06:24:33;-0.11;82.31
71173;DHT22;58875;51.996;4.504;2023-03-01T06:26:59;-0.08;82.33
71173;DHT22;58875;51.996;4.504;2023-03-01T06:29:25;-0.11;82.12
71173;DHT22;58875;51.996;4.504;2023-03-01T06:31:50;-0.08;82.20
71173;DHT22;58875;51.996;4.504;2023-03-01T06:34:16;-0.11;82.08
71173;DHT22;58875;51.996;4.504;2023-03-01T06:36:41;-0.12;82.17
71173;DHT22;58875;51.996;4.504;2023-03-01T06:39:07;-0.14;82.11
71173;DHT22;58875;51.996;4.504;2023-03-01T06:41:33;-0.11;82.14
71173;DHT22;58875;51.996;4.504;2023-03-01T06:43:59;-0.12;82.07
71173;DHT22;58875;51.996;4.504;2023-03-01T06:46:25;-0.19;81.91
71173;DHT22;58875;51.996;4.504;2023-03-01T06:48:51;-0.19;82.18
71173;DHT22;58875;51.996;4.504;2023-03-01T06:51:16;-0.18;82.05
71173;DHT22;58875;51.996;4.504;2023-03-01T06:53:42;-0.25;82.11
71173;DHT22;58875;51.996;4.504;2023-03-01T06:56:07;-0.19;82.26
71173;DHT22;58875;51.996;4.504;2023-03-01T06:58:36;-0.11;82.11
71173;DHT22;58875;51.996;4.504;2023-03-01T07:01:06;-0.10;81.98
71173;DHT22;58875;51.996;4.504;2023-03-01T07:03:31;-0.07;82.02
71173;DHT22;58875;51.996;4.504;2023-03-01T07:05:57;-0.04;81.99
71173;DHT22;58875;51.996;4.504;2023-03-01T07:08:22;0.05;81.98
71173;DHT22;58875;51.996;4.504;2023-03-01T07:10:48;0.06;81.70
71173;DHT22;58875;51.996;4.504;2023-03-01T07:13:14;0.07;81.74
71173;DHT22;58875;51.996;4.504;2023-03-01T07:15:43;-0.04;81.68
71173;DHT22;58875;51.996;4.504;2023-03-01T07:18:08;-0.05;81.97
71173;DHT22;58875;51.996;4.504;2023-03-01T07:20:34;0.00;82.08
71173;DHT22;58875;51.996;4.504;2023-03-01T07:23:02;0.06;82.07
71173;DHT22;58875;51.996;4.504;2023-03-01T07:25:27;0.20;82.13
71173;DHT22;58875;51.996;4.504;2023-03-01T07:27:53;0.29;82.15
71173;DHT22;58875;51.996;4.504;2023-03-01T07:30:20;0.34;82.09
71173;DHT22;58875;51.996;4.504;2023-03-01T07:32:46;0.44;82.05
71173;DHT22;58875;51.996;4.504;2023-03-01T07:35:11;0.50;81.87
71173;DHT22;58875;51.996;4.504;2023-03-01T07:37:37;0.57;81.93
71173;DHT22;58875;51.996;4.504;2023-03-01T07:40:06;0.72;82.41
71173;DHT22;58875;51.996;4.504;2023-03-01T07:42:32;1.11;82.15
71173;DHT22;58875;51.996;4.504;2023-03-01T07:44:58;2.15;81.06
71173;DHT22;58875;51.996;4.504;2023-03-01T07:47:23;2.76;79.21
71173;DHT22;58875;51.996;4.504;2023-03-01T07:49:49;3.06;77.58
71173;DHT22;58875;51.996;4.504;2023-03-01T07:52:14;3.11;78.12
71173;DHT22;58875;51.996;4.504;2023-03-01T07:54:43;3.37;77.24
71173;DHT22;58875;51.996;4.504;2023-03-01T07:57:11;3.28;77.85
71173;DHT22;58875;51.996;4.504;2023-03-01T07:59:37;3.31;78.16
71173;DHT22;58875;51.996;4.504;2023-03-01T08:02:03;3.56;77.37
71173;DHT22;58875;51.996;4.504;2023-03-01T08:04:28;3.65;77.30
71173;DHT22;58875;51.996;4.504;2023-03-01T08:06:54;3.65;78.16
71173;DHT22;58875;51.996;4.504;2023-03-01T08:09:21;3.66;77.72
71173;DHT22;58875;51.996;4.504;2023-03-01T08:11:46;3.83;77.65
71173;DHT22;58875;51.996;4.504;2023-03-01T08:14:12;3.85;76.44
71173;DHT22;58875;51.996;4.504;2023-03-01T08:16:40;3.96;77.07
71173;DHT22;58875;51.996;4.504;2023-03-01T08:19:11;4.48;76.02
71173;DHT22;58875;51.996;4.504;2023-03-01T08:21:37;5.02;73.08
71173;DHT22;58875;51.996;4.504;2023-03-01T08:26:32;6.70;70.05
71173;DHT22;58875;51.996;4.504;2023-03-01T08:28:57;7.68;64.20
71173;DHT22;58875;51.996;4.504;2023-03-01T08:31:32;8.40;64.31
71173;DHT22;58875;51.996;4.504;2023-03-01T08:34:01;9.16;60.21
71173;DHT22;58875;51.996;4.504;2023-03-01T08:36:30;9.63;58.59
71173;DHT22;58875;51.996;4.504;2023-03-01T08:38:56;9.70;55.01
71173;DHT22;58875;51.996;4.504;2023-03-01T08:41:22;9.64;53.69
71173;DHT22;58875;51.996;4.504;2023-03-01T08:43:47;9.73;53.03
71173;DHT22;58875;51.996;4.504;2023-03-01T08:46:13;9.47;52.90
71173;DHT22;58875;51.996;4.504;2023-03-01T08:48:40;9.47;51.78
71173;DHT22;58875;51.996;4.504;2023-03-01T08:51:29;9.02;52.14
71173;DHT22;58875;51.996;4.504;2023-03-01T08:54:18;8.37;54.42
71173;DHT22;58875;51.996;4.504;2023-03-01T08:56:52;7.75;57.14
71173;DHT22;58875;51.996;4.504;2023-03-01T08:59:18;7.24;58.14
71173;DHT22;58875;51.996;4.504;2023-03-01T09:01:44;6.57;60.24
71173;DHT22;58875;51.996;4.504;2023-03-01T09:04:16;5.63;62.40
71173;DHT22;58875;51.996;4.504;2023-03-01T09:06:42;5.28;64.51
71173;DHT22;58875;51.996;4.504;2023-03-01T09:09:16;5.15;64.63
71173;DHT22;58875;51.996;4.504;2023-03-01T09:11:43;5.00;64.03
71173;DHT22;58875;51.996;4.504;2023-03-01T09:14:11;4.99;65.20
71173;DHT22;58875;51.996;4.504;2023-03-01T09:16:37;5.12;64.33
71173;DHT22;58875;51.996;4.504;2023-03-01T09:19:04;5.12;64.52
71173;DHT22;58875;51.996;4.504;2023-03-01T09:21:29;5.19;65.40
71173;DHT22;58875;51.996;4.504;2023-03-01T09:23:57;5.36;65.52
71173;DHT22;58875;51.996;4.504;2023-03-01T09:26:25;5.49;64.09
71173;DHT22;58875;51.996;4.504;2023-03-01T09:28:58;5.54;62.84
71173;DHT22;58875;51.996;4.504;2023-03-01T09:31:24;5.51;62.51
71173;DHT22;58875;51.996;4.504;2023-03-01T09:33:52;5.47;61.79
71173;DHT22;58875;51.996;4.504;2023-03-01T09:36:31;5.49;61.99
71173;DHT22;58875;51.996;4.504;2023-03-01T09:39:07;5.57;61.93
71173;DHT22;58875;51.996;4.504;2023-03-01T09:47:23;5.81;61.19
71173;DHT22;58875;51.996;4.504;2023-03-01T09:50:04;5.81;60.13
71173;DHT22;58875;51.996;4.504;2023-03-01T09:52:43;5.94;59.77
71173;DHT22;58875;51.996;4.504;2023-03-01T09:55:44;6.01;59.12
71173;DHT22;58875;51.996;4.504;2023-03-01T10:07:27;6.43;58.33
71173;DHT22;58875;51.996;4.504;2023-03-01T10:09:53;6.60;57.79
71173;DHT22;58875;51.996;4.504;2023-03-01T10:12:25;6.60;55.74
71173;DHT22;58875;51.996;4.504;2023-03-01T10:17:36;6.62;54.44
71173;DHT22;58875;51.996;4.504;2023-03-01T10:20:31;6.52;55.60
71173;DHT22;58875;51.996;4.504;2023-03-01T10:29:15;6.84;55.07
71173;DHT22;58875;51.996;4.504;2023-03-01T10:31:48;6.96;53.60
71173;DHT22;58875;51.996;4.504;2023-03-01T10:34:18;6.91;53.46
71173;DHT22;58875;51.996;4.504;2023-03-01T10:36:48;6.79;53.41
71173;DHT22;58875;51.996;4.504;2023-03-01T10:39:23;6.89;53.24
71173;DHT22;58875;51.996;4.504;2023-03-01T10:42:02;6.83;52.96
71173;DHT22;58875;51.996;4.504;2023-03-01T10:48:04;7.07;52.88
71173;DHT22;58875;51.996;4.504;2023-03-01T10:50:36;7.27;52.88
71173;DHT22;58875;51.996;4.504;2023-03-01T10:58:24;7.30;53.37
71173;DHT22;58875;51.996;4.504;2023-03-01T11:01:03;7.38;53.88
71173;DHT22;58875;51.996;4.504;2023-03-01T11:03:35;7.50;53.67
71173;DHT22;58875;51.996;4.504;2023-03-01T11:08:45;7.86;51.95
71173;DHT22;58875;51.996;4.504;2023-03-01T11:11:30;7.75;52.56
71173;DHT22;58875;51.996;4.504;2023-03-01T11:16:48;7.79;51.82
71173;DHT22;58875;51.996;4.504;2023-03-01T11:19:18;7.76;53.03
71173;DHT22;58875;51.996;4.504;2023-03-01T11:24:52;7.79;51.44
71173;DHT22;58875;51.996;4.504;2023-03-01T11:30:38;7.71;52.92
71173;DHT22;58875;51.996;4.504;2023-03-01T11:45:21;8.16;51.56
71173;DHT22;58875;51.996;4.504;2023-03-01T11:48:07;7.99;50.81
71173;DHT22;58875;51.996;4.504;2023-03-01T11:50:49;7.85;51.33
71173;DHT22;58875;51.996;4.504;2023-03-01T11:53:42;7.93;51.63
71173;DHT22;58875;51.996;4.504;2023-03-01T11:56:30;7.93;49.59
71173;DHT22;58875;51.996;4.504;2023-03-01T11:59:26;8.00;49.15
71173;DHT22;58875;51.996;4.504;2023-03-01T12:19:33;8.36;52.74
71173;DHT22;58875;51.996;4.504;2023-03-01T12:22:09;8.64;52.20
71173;DHT22;58875;51.996;4.504;2023-03-01T12:31:00;8.54;52.00
71173;DHT22;58875;51.996;4.504;2023-03-01T12:39:35;8.61;51.43
71173;DHT22;58875;51.996;4.504;2023-03-01T12:50:52;8.51;49.53
71173;DHT22;58875;51.996;4.504;2023-03-01T12:55:59;8.71;49.05
71173;DHT22;58875;51.996;4.504;2023-03-01T12:58:47;8.72;48.53
71173;DHT22;58875;51.996;4.504;2023-03-01T13:01:36;8.81;48.52
71173;DHT22;58875;51.996;4.504;2023-03-01T13:04:14;8.95;48.24
71173;DHT22;58875;51.996;4.504;2023-03-01T13:07:02;8.67;47.56
71173;DHT22;58875;51.996;4.504;2023-03-01T13:09:51;8.71;49.55
71173;DHT22;58875;51.996;4.504;2023-03-01T13:12:46;8.79;47.78
71173;DHT22;58875;51.996;4.504;2023-03-01T13:17:52;8.69;46.30
71173;DHT22;58875;51.996;4.504;2023-03-01T13:20:24;8.81;46.07
71173;DHT22;58875;51.996;4.504;2023-03-01T13:23:07;8.91;47.01
71173;DHT22;58875;51.996;4.504;2023-03-01T13:26:15;9.15;47.12
71173;DHT22;58875;51.996;4.504;2023-03-01T13:28:46;9.01;46.15
71173;DHT22;58875;51.996;4.504;2023-03-01T13:33:43;8.74;45.10
71173;DHT22;58875;51.996;4.504;2023-03-01T13:38:58;8.72;44.71
71173;DHT22;58875;51.996;4.504;2023-03-01T13:44:29;8.99;45.72
71173;DHT22;58875;51.996;4.504;2023-03-01T13:50:18;9.40;45.92
71173;DHT22;58875;51.996;4.504;2023-03-01T13:52:52;9.16;45.28
71173;DHT22;58875;51.996;4.504;2023-03-01T13:55:27;8.85;46.40
71173;DHT22;58875;51.996;4.504;2023-03-01T13:57:57;9.01;45.26
71173;DHT22;58875;51.996;4.504;2023-03-01T14:00:47;9.23;45.71
71173;DHT22;58875;51.996;4.504;2023-03-01T14:03:19;9.25;43.89
71173;DHT22;58875;51.996;4.504;2023-03-01T14:08:39;9.15;45.19
71173;DHT22;58875;51.996;4.504;2023-03-01T14:11:41;9.32;44.84
71173;DHT22;58875;51.996;4.504;2023-03-01T14:20:28;9.18;44.09
71173;DHT22;58875;51.996;4.504;2023-03-01T14:22:58;9.18;44.34
71173;DHT22;58875;51.996;4.504;2023-03-01T14:25:25;8.98;44.94
71173;DHT22;58875;51.996;4.504;2023-03-01T14:30:30;9.20;44.85
71173;DHT22;58875;51.996;4.504;2023-03-01T14:33:03;9.30;45.49
71173;DHT22;58875;51.996;4.504;2023-03-01T14:35:31;9.19;44.61
71173;DHT22;58875;51.996;4.504;2023-03-01T14:37:58;9.23;45.11
71173;DHT22;58875;51.996;4.504;2023-03-01T14:42:53;9.15;44.76
71173;DHT22;58875;51.996;4.504;2023-03-01T14:45:19;9.20;44.41
71173;DHT22;58875;51.996;4.504;2023-03-01T14:47:46;9.32;45.41
71173;DHT22;58875;51.996;4.504;2023-03-01T14:50:19;9.36;44.32
71173;DHT22;58875;51.996;4.504;2023-03-01T14:52:48;9.40;43.50
71173;DHT22;58875;51.996;4.504;2023-03-01T14:55:36;9.39;43.36
71173;DHT22;58875;51.996;4.504;2023-03-01T14:58:11;9.23;43.75
71173;DHT22;58875;51.996;4.504;2023-03-01T15:00:37;9.29;44.04
71173;DHT22;58875;51.996;4.504;2023-03-01T15:03:23;8.98;43.69
71173;DHT22;58875;51.996;4.504;2023-03-01T15:05:50;8.91;44.15
71173;DHT22;58875;51.996;4.504;2023-03-01T15:08:24;8.85;43.74
71173;DHT22;58875;51.996;4.504;2023-03-01T15:10:59;8.82;43.19
71173;DHT22;58875;51.996;4.504;2023-03-01T15:13:30;8.81;43.74
71173;DHT22;58875;51.996;4.504;2023-03-01T15:18:38;9.15;44.66
71173;DHT22;58875;51.996;4.504;2023-03-01T15:21:37;9.29;45.57
71173;DHT22;58875;51.996;4.504;2023-03-01T15:26:58;9.39;44.07
71173;DHT22;58875;51.996;4.504;2023-03-01T15:29:31;9.32;42.65
71173;DHT22;58875;51.996;4.504;2023-03-01T15:34:32;9.33;43.59
71173;DHT22;58875;51.996;4.504;2023-03-01T15:37:00;9.25;44.00
71173;DHT22;58875;51.996;4.504;2023-03-01T15:39:39;8.91;43.69
71173;DHT22;58875;51.996;4.504;2023-03-01T15:42:53;8.86;44.06
71173;DHT22;58875;51.996;4.504;2023-03-01T15:47:47;9.19;43.98
71173;DHT22;58875;51.996;4.504;2023-03-01T15:50:21;9.11;45.78
71173;DHT22;58875;51.996;4.504;2023-03-01T15:52:49;9.06;47.43
71173;DHT22;58875;51.996;4.504;2023-03-01T15:55:29;9.06;47.42
71173;DHT22;58875;51.996;4.504;2023-03-01T15:58:18;8.88;47.41
71173;DHT22;58875;51.996;4.504;2023-03-01T16:00:45;8.95;47.54
71173;DHT22;58875;51.996;4.504;2023-03-01T16:03:12;8.79;47.71
71173;DHT22;58875;51.996;4.504;2023-03-01T16:05:41;8.58;48.51
71173;DHT22;58875;51.996;4.504;2023-03-01T16:08:06;8.43;49.55
71173;DHT22;58875;51.996;4.504;2023-03-01T16:10:34;8.32;49.27
71173;DHT22;58875;51.996;4.504;2023-03-01T16:13:00;8.23;50.03
71173;DHT22;58875;51.996;4.504;2023-03-01T16:15:28;8.24;50.22
71173;DHT22;58875;51.996;4.504;2023-03-01T16:18:17;8.14;50.44
71173;DHT22;58875;51.996;4.504;2023-03-01T16:20:43;8.04;50.99
71173;DHT22;58875;51.996;4.504;2023-03-01T16:23:10;8.04;51.39
71173;DHT22;58875;51.996;4.504;2023-03-01T16:25:36;8.02;51.35
71173;DHT22;58875;51.996;4.504;2023-03-01T16:28:03;8.00;51.71
71173;DHT22;58875;51.996;4.504;2023-03-01T16:30:38;7.97;50.74
71173;DHT22;58875;51.996;4.504;2023-03-01T16:33:05;7.86;51.34
71173;DHT22;58875;51.996;4.504;2023-03-01T16:35:51;7.78;51.80
71173;DHT22;58875;51.996;4.504;2023-03-01T16:38:19;7.73;52.19
71173;DHT22;58875;51.996;4.504;2023-03-01T16:40:50;7.63;52.37
71173;DHT22;58875;51.996;4.504;2023-03-01T16:43:19;7.54;52.24
71173;DHT22;58875;51.996;4.504;2023-03-01T16:45:48;7.54;52.50
71173;DHT22;58875;51.996;4.504;2023-03-01T16:48:13;7.40;52.90
71173;DHT22;58875;51.996;4.504;2023-03-01T16:50:39;7.35;53.14
71173;DHT22;58875;51.996;4.504;2023-03-01T16:53:05;7.28;52.97
71173;DHT22;58875;51.996;4.504;2023-03-01T16:55:31;7.21;53.60
71173;DHT22;58875;51.996;4.504;2023-03-01T16:57:56;7.15;53.76
71173;DHT22;58875;51.996;4.504;2023-03-01T17:00:22;7.14;53.47
71173;DHT22;58875;51.996;4.504;2023-03-01T17:02:51;7.14;53.96
71173;DHT22;58875;51.996;4.504;2023-03-01T17:05:18;7.05;54.11
71173;DHT22;58875;51.996;4.504;2023-03-01T17:07:54;7.01;54.30
71173;DHT22;58875;51.996;4.504;2023-03-01T17:10:27;6.94;54.58
71173;DHT22;58875;51.996;4.504;2023-03-01T17:12:53;6.83;54.89
71173;DHT22;58875;51.996;4.504;2023-03-01T17:15:19;6.79;54.96
71173;DHT22;58875;51.996;4.504;2023-03-01T17:17:44;6.76;55.02
71173;DHT22;58875;51.996;4.504;2023-03-01T17:20:10;6.72;55.43
71173;DHT22;58875;51.996;4.504;2023-03-01T17:22:36;6.69;55.19
71173;DHT22;58875;51.996;4.504;2023-03-01T17:25:02;6.60;55.70
71173;DHT22;58875;51.996;4.504;2023-03-01T17:27:28;6.56;56.20
71173;DHT22;58875;51.996;4.504;2023-03-01T17:29:53;6.53;56.10
71173;DHT22;58875;51.996;4.504;2023-03-01T17:32:19;6.50;56.37
71173;DHT22;58875;51.996;4.504;2023-03-01T17:34:44;6.36;57.04
71173;DHT22;58875;51.996;4.504;2023-03-01T17:37:10;6.33;57.30
71173;DHT22;58875;51.996;4.504;2023-03-01T17:39:36;6.31;57.49
71173;DHT22;58875;51.996;4.504;2023-03-01T17:42:03;6.24;57.89
71173;DHT22;58875;51.996;4.504;2023-03-01T17:44:31;6.26;57.82
71173;DHT22;58875;51.996;4.504;2023-03-01T17:46:58;6.19;57.97
71173;DHT22;58875;51.996;4.504;2023-03-01T17:49:24;6.11;58.41
71173;DHT22;58875;51.996;4.504;2023-03-01T17:51:50;6.08;58.58
71173;DHT22;58875;51.996;4.504;2023-03-01T17:54:16;6.10;58.46
71173;DHT22;58875;51.996;4.504;2023-03-01T17:56:42;6.02;58.82
71173;DHT22;58875;51.996;4.504;2023-03-01T17:59:07;5.95;58.93
71173;DHT22;58875;51.996;4.504;2023-03-01T18:01:33;5.90;59.08
71173;DHT22;58875;51.996;4.504;2023-03-01T18:04:00;5.87;59.19
71173;DHT22;58875;51.996;4.504;2023-03-01T18:06:27;5.87;59.18
71173;DHT22;58875;51.996;4.504;2023-03-01T18:08:53;5.84;59.28
71173;DHT22;58875;51.996;4.504;2023-03-01T18:11:22;5.75;59.74
71173;DHT22;58875;51.996;4.504;2023-03-01T18:13:48;5.71;59.91
71173;DHT22;58875;51.996;4.504;2023-03-01T18:16:21;5.67;60.06
71173;DHT22;58875;51.996;4.504;2023-03-01T18:18:52;5.60;60.06
71173;DHT22;58875;51.996;4.504;2023-03-01T18:21:20;5.54;60.63
71173;DHT22;58875;51.996;4.504;2023-03-01T18:24:07;5.54;60.64
71173;DHT22;58875;51.996;4.504;2023-03-01T18:26:44;5.53;60.81
71173;DHT22;58875;51.996;4.504;2023-03-01T18:29:22;5.46;60.86
71173;DHT22;58875;51.996;4.504;2023-03-01T18:32:18;5.38;61.09
71173;DHT22;58875;51.996;4.504;2023-03-01T18:35:27;5.33;61.44
71173;DHT22;58875;51.996;4.504;2023-03-01T18:37:56;5.32;61.61